Time,TemperatureF,DewpointF,PressureIn,WindDirection,WindDirectionDegrees,WindSpeedMPH,WindSpeedGustMPH,Humidity,HourlyPrecipIn,Conditions,Clouds,dailyrainin,SolarRadiationWatts/m^2,SoftwareType,DateUTC
2013-04-07 04:00:00,57.0,51.0,-100.00,SSE,159,1.0,-999.0,82,-99.99,,,-99.99,0.000000,,2013-04-07 09:00:00,
2013-04-07 04:54:00,57.0,51.0,-100.00,SSE,159,1.0,-999.0,82,-99.99,,,-99.99,0.000000,,2013-04-07 09:54:00,
2013-04-07 05:00:00,56.0,52.0,-100.00,South,185,2.0,-999.0,85,-99.99,,,-99.99,0.000000,,2013-04-07 10:00:00,
2013-04-07 05:54:00,56.0,52.0,-100.00,South,185,2.0,-999.0,85,-99.99,,,-99.99,0.000000,,2013-04-07 10:54:00,
2013-04-07 06:00:00,57.0,52.0,-100.00,SSE,168,1.0,-999.0,85,-99.99,,,-99.99,0.000000,,2013-04-07 11:00:00,
2013-04-07 06:53:00,57.0,52.0,-100.00,SSE,168,1.0,-999.0,85,-99.99,,,-99.99,0.000000,,2013-04-07 11:53:00,
2013-04-07 07:00:00,56.0,52.0,-100.00,SSE,165,2.0,-999.0,86,-99.99,,,-99.99,2.790000,,2013-04-07 12:00:00,
2013-04-07 07:54:00,56.0,52.0,-100.00,SSE,165,2.0,-999.0,86,-99.99,,,-99.99,2.790000,,2013-04-07 12:54:00,
2013-04-07 08:00:00,57.0,53.0,-100.00,SE,146,1.0,-999.0,89,-99.99,,,-99.99,41.549999,,2013-04-07 13:00:00,
2013-04-07 08:53:00,57.0,53.0,-100.00,SE,146,1.0,-999.0,89,-99.99,,,-99.99,41.549999,,2013-04-07 13:53:00,
2013-04-07 09:00:00,59.0,55.0,-100.00,SSE,160,3.0,-999.0,84,-99.99,,,-99.99,138.100006,,2013-04-07 14:00:00,
2013-04-07 09:54:00,59.0,55.0,-100.00,SSE,160,3.0,-999.0,84,-99.99,,,-99.99,138.100006,,2013-04-07 14:54:00,
2013-04-07 10:00:00,63.0,55.0,-100.00,South,177,5.0,-999.0,77,-99.99,,,-99.99,291.899994,,2013-04-07 15:00:00,
2013-04-07 10:55:00,63.0,55.0,-100.00,South,177,5.0,-999.0,77,-99.99,,,-99.99,291.899994,,2013-04-07 15:55:00,
2013-04-07 11:00:00,66.0,54.0,-100.00,South,190,7.0,-999.0,65,-99.99,,,-99.99,320.399994,,2013-04-07 16:00:00,
2013-04-07 11:54:00,66.0,54.0,-100.00,South,190,7.0,-999.0,65,-99.99,,,-99.99,320.399994,,2013-04-07 16:54:00,
2013-04-07 12:00:00,67.0,55.0,-100.00,SSW,201,10.0,-999.0,66,-99.99,,,-99.99,454.100006,,2013-04-07 17:00:00,
2013-04-07 12:54:00,67.0,55.0,-100.00,SSW,201,10.0,-999.0,66,-99.99,,,-99.99,454.100006,,2013-04-07 17:54:00,
2013-04-07 13:00:00,68.0,54.0,-100.00,SSW,200,9.0,-999.0,61,-99.99,,,-99.99,551.500000,,2013-04-07 18:00:00,
2013-04-07 13:53:00,68.0,54.0,-100.00,SSW,200,9.0,-999.0,61,-99.99,,,-99.99,551.500000,,2013-04-07 18:53:00,
2013-04-07 14:00:00,70.0,54.0,-100.00,South,191,7.0,-999.0,55,-99.99,,,-99.99,625.400024,,2013-04-07 19:00:00,
2013-04-07 14:55:00,70.0,54.0,-100.00,South,191,7.0,-999.0,55,-99.99,,,-99.99,625.400024,,2013-04-07 19:55:00,
2013-04-07 15:00:00,71.0,54.0,-100.00,South,184,8.0,-999.0,54,-99.99,,,-99.99,612.200012,,2013-04-07 20:00:00,
2013-04-07 15:54:00,71.0,54.0,-100.00,South,184,8.0,-999.0,54,-99.99,,,-99.99,612.200012,,2013-04-07 20:54:00,
2013-04-07 16:00:00,72.0,53.0,-100.00,South,177,6.0,-999.0,51,-99.99,,,-99.99,485.100006,,2013-04-07 21:00:00,
2013-04-07 16:55:00,72.0,53.0,-100.00,South,177,6.0,-999.0,51,-99.99,,,-99.99,485.100006,,2013-04-07 21:55:00,
2013-04-07 17:00:00,72.0,53.0,-100.00,SSE,151,4.0,-999.0,51,-99.99,,,-99.99,407.500000,,2013-04-07 22:00:00,
2013-04-07 17:53:00,72.0,53.0,-100.00,SSE,151,4.0,-999.0,51,-99.99,,,-99.99,407.500000,,2013-04-07 22:53:00,
2013-04-07 18:00:00,72.0,54.0,-100.00,SSE,166,4.0,-999.0,54,-99.99,,,-99.99,265.200012,,2013-04-07 23:00:00,
2013-04-07 18:53:00,72.0,54.0,-100.00,SSE,166,4.0,-999.0,54,-99.99,,,-99.99,265.200012,,2013-04-07 23:53:00,
2013-04-07 19:00:00,70.0,56.0,-100.00,SE,124,2.0,-999.0,61,-99.99,,,-99.99,126.300003,,2013-04-08 00:00:00,
2013-04-07 19:53:00,70.0,56.0,-100.00,SE,124,2.0,-999.0,61,-99.99,,,-99.99,126.300003,,2013-04-08 00:53:00,
2013-04-07 20:00:00,64.0,56.0,-100.00,ESE,122,1.0,-999.0,75,-99.99,,,-99.99,8.550000,,2013-04-08 01:00:00,
2013-04-07 20:55:00,64.0,56.0,-100.00,ESE,122,1.0,-999.0,75,-99.99,,,-99.99,8.550000,,2013-04-08 01:55:00,
2013-04-07 21:00:00,63.0,55.0,-100.00,SE,142,1.0,-999.0,76,-99.99,,,-99.99,0.000000,,2013-04-08 02:00:00,
2013-04-07 21:54:00,63.0,55.0,-100.00,SE,142,1.0,-999.0,76,-99.99,,,-99.99,0.000000,,2013-04-08 02:54:00,
2013-04-07 22:00:00,64.0,54.0,-100.00,ESE,110,2.0,-999.0,70,-99.99,,,-99.99,0.000000,,2013-04-08 03:00:00,
2013-04-07 22:57:00,64.0,54.0,-100.00,ESE,110,2.0,-999.0,70,-99.99,,,-99.99,0.000000,,2013-04-08 03:57:00,
2013-04-07 23:00:00,64.0,54.0,-100.00,ESE,105,4.0,-999.0,69,-99.99,,,-99.99,0.000000,,2013-04-08 04:00:00,
2013-04-07 23:53:00,64.0,54.0,-100.00,ESE,105,4.0,-999.0,69,-99.99,,,-99.99,0.000000,,2013-04-08 04:53:00,